Time;durP1;ratioP1;P1;durP2;ratioP2;P2;SDS_P1;SDS_P2;PMS_P1;PMS_P2;Temp;Humidity;BMP_temperature;BMP_pressure;BME280_temperature;BME280_humidity;BME280_pressure;Samples;Min_cycle;Max_cycle;Signal;HPM_P1;HPM_P2
2022/09/28 00:01:54;;;;;;;3.63;2.50;;;;;;;17.00;60.16;98712.91;5065649;28;20041;-64
2022/09/28 00:04:20;;;;;;;2.97;2.20;;;;;;;16.68;60.89;98720.53;5052870;28;20128;-64
2022/09/28 00:06:46;;;;;;;3.28;2.03;;;;;;;16.77;60.74;98717.25;5044388;28;20041;-63
2022/09/28 00:09:12;;;;;;;3.17;2.15;;;;;;;16.75;60.87;98719.16;5055211;28;20485;-65
2022/09/28 00:11:38;;;;;;;3.67;2.30;;;;;;;16.76;60.89;98715.56;5063208;28;20057;-63
2022/09/28 00:14:06;;;;;;;3.50;2.55;;;;;;;16.69;60.98;98709.81;5064614;28;20043;-64
2022/09/28 00:16:35;;;;;;;2.25;2.03;;;;;;;16.56;61.54;98718.78;5058035;28;20035;-64
2022/09/28 00:19:01;;;;;;;2.95;2.22;;;;;;;16.42;61.78;98711.81;5059991;28;20066;-63
2022/09/28 00:21:29;;;;;;;3.72;2.53;;;;;;;16.59;61.40;98713.25;5068916;28;20036;-64
2022/09/28 00:24:13;;;;;;;3.40;2.42;;;;;;;16.43;61.92;98717.00;5069183;28;20036;-64
2022/09/28 00:26:56;;;;;;;3.47;2.53;;;;;;;16.41;61.96;98710.13;5057130;28;20120;-63
2022/09/28 00:29:39;;;;;;;3.72;2.30;;;;;;;16.33;62.33;98708.03;5057838;28;20561;-64
2022/09/28 00:32:10;;;;;;;3.75;2.67;;;;;;;16.33;62.22;98702.72;5053577;28;20124;-63
2022/09/28 00:34:47;;;;;;;3.60;2.55;;;;;;;16.32;62.43;98698.41;5060501;28;20104;-64
2022/09/28 00:37:14;;;;;;;3.50;2.53;;;;;;;16.36;62.28;98704.31;5068240;28;20036;-64
2022/09/28 00:39:42;;;;;;;3.47;2.47;;;;;;;16.41;62.11;98710.13;5053382;28;20083;-64
2022/09/28 00:42:15;;;;;;;3.90;1.92;;;;;;;16.41;62.15;98712.78;5056611;28;20037;-64
2022/09/28 00:44:46;;;;;;;2.97;2.17;;;;;;;16.38;62.27;98705.03;5058446;28;20430;-64
2022/09/28 00:47:21;;;;;;;4.78;2.08;;;;;;;16.40;62.03;98700.50;5055400;28;20121;-64
2022/09/28 00:50:03;;;;;;;3.10;2.10;;;;;;;16.38;62.13;98689.97;5059027;28;20033;-64
2022/09/28 00:52:36;;;;;;;2.58;2.20;;;;;;;16.43;62.11;98695.78;5063371;28;20044;-65
2022/09/28 00:55:07;;;;;;;2.35;1.80;;;;;;;16.45;62.32;98701.00;5060975;28;20502;-64
2022/09/28 00:57:34;;;;;;;3.85;2.20;;;;;;;16.50;62.07;98694.41;5062077;28;20113;-65
2022/09/28 01:00:02;;;;;;;2.80;1.98;;;;;;;16.47;62.16;98691.13;5061360;28;20057;-64
2022/09/28 01:02:28;;;;;;;4.60;2.47;;;;;;;16.47;62.12;98691.13;5068222;28;20036;-65
2022/09/28 01:04:56;;;;;;;2.63;2.05;;;;;;;16.51;61.97;98685.47;5066037;28;20124;-64
2022/09/28 01:07:22;;;;;;;3.53;2.60;;;;;;;16.57;61.92;98689.50;5053445;28;20579;-64
2022/09/28 01:09:49;;;;;;;3.75;2.47;;;;;;;16.56;61.80;98686.97;5061753;28;20035;-65
2022/09/28 01:12:15;;;;;;;2.78;2.05;;;;;;;16.57;61.86;98683.34;5058395;28;20063;-64
2022/09/28 01:14:41;;;;;;;3.42;2.30;;;;;;;16.60;61.77;98688.44;5063725;28;20383;-64
2022/09/28 01:17:15;;;;;;;3.53;2.53;;;;;;;15.97;63.82;98696.44;5062485;28;20396;-64
2022/09/28 01:20:13;;;;;;;3.33;2.42;;;;;;;15.71;65.16;98690.28;5058520;28;20035;-63
2022/09/28 01:22:56;;;;;;;3.45;2.50;;;;;;;16.18;63.79;98688.75;5066655;28;20041;-65
2022/09/28 01:25:59;;;;;;;3.53;2.40;;;;;;;16.47;62.73;98689.31;5061443;28;20064;-65
2022/09/28 01:28:29;;;;;;;3.70;2.60;;;;;;;16.57;62.16;98680.72;5073473;28;20036;-65
2022/09/28 01:31:08;;;;;;;3.65;2.58;;;;;;;16.90;61.79;98680.88;5072845;28;20070;-65
2022/09/28 01:33:41;;;;;;;3.58;2.60;;;;;;;16.56;62.14;98677.22;5065277;28;20108;-65
2022/09/28 01:36:07;;;;;;;3.67;2.50;;;;;;;16.64;61.97;98680.16;5063558;28;20040;-66
2022/09/28 01:38:39;;;;;;;4.22;3.05;;;;;;;16.65;62.00;98681.00;5070201;28;20098;-65
2022/09/28 01:41:06;;;;;;;5.53;3.30;;;;;;;16.64;62.01;98680.16;5075025;28;20107;-66
2022/09/28 01:43:37;;;;;;;3.83;2.83;;;;;;;16.78;61.83;98673.84;5066904;28;20075;-65
2022/09/28 01:46:13;;;;;;;5.72;3.88;;;;;;;16.68;62.22;98667.50;5059543;28;20029;-64
2022/09/28 01:48:49;;;;;;;4.57;3.28;;;;;;;16.65;62.26;98665.09;5055642;28;20029;-65
2022/09/28 01:51:33;;;;;;;4.40;3.30;;;;;;;16.86;61.85;98670.63;5070419;28;20437;-65
2022/09/28 01:54:10;;;;;;;4.70;3.03;;;;;;;16.73;62.12;98665.38;5066159;28;20375;-64
2022/09/28 01:56:45;;;;;;;5.20;3.22;;;;;;;16.77;61.94;98669.50;5053899;28;20025;-65
2022/09/28 01:59:22;;;;;;;4.15;3.10;;;;;;;16.71;62.25;98665.44;5066037;28;20032;-64
2022/09/28 02:01:53;;;;;;;4.60;3.30;;;;;;;16.70;62.13;98658.47;5070549;28;20033;-65
2022/09/28 02:04:25;;;;;;;4.30;2.85;;;;;;;16.72;62.11;98656.56;5048386;28;20369;-65
2022/09/28 02:07:03;;;;;;;5.13;3.42;;;;;;;16.75;62.10;98661.66;5054959;28;20083;-66
2022/09/28 02:09:40;;;;;;;4.57;3.15;;;;;;;16.78;62.13;98659.75;5065218;28;20037;-65
2022/09/28 02:12:26;;;;;;;4.57;3.40;;;;;;;16.81;62.17;98660.38;5055488;28;20028;-65
2022/09/28 02:14:58;;;;;;;4.68;3.25;;;;;;;16.84;61.70;98660.13;5054560;28;20032;-65
2022/09/28 02:17:24;;;;;;;4.50;3.35;;;;;;;16.97;61.57;98660.06;5038807;28;20033;-66
2022/09/28 02:19:49;;;;;;;4.78;3.72;;;;;;;17.03;61.37;98659.59;5050238;28;20150;-66
2022/09/28 02:22:27;;;;;;;5.75;3.78;;;;;;;16.90;62.00;98654.34;5049954;28;20065;-65
2022/09/28 02:24:58;;;;;;;5.70;3.67;;;;;;;16.88;61.78;98651.00;5035753;28;20047;-66
2022/09/28 02:27:26;;;;;;;5.35;3.45;;;;;;;16.90;61.85;98654.34;5052888;28;20079;-66
2022/09/28 02:29:52;;;;;;;6.80;3.92;;;;;;;16.88;61.84;98656.31;5054527;28;20037;-66
2022/09/28 02:32:19;;;;;;;5.70;3.50;;;;;;;16.98;61.57;98646.66;5052853;28;20082;-66
2022/09/28 02:34:44;;;;;;;5.03;3.67;;;;;;;17.02;61.42;98649.94;5053496;28;20025;-66
2022/09/28 02:37:10;;;;;;;6.82;4.10;;;;;;;17.04;61.42;98644.53;5055613;28;20036;-66
2022/09/28 02:39:35;;;;;;;6.20;4.90;;;;;;;16.96;61.86;98638.00;5055355;28;20399;-65
2022/09/28 02:42:25;;;;;;;5.20;4.32;;;;;;;16.95;61.89;98646.91;5040781;28;20502;-66
2022/09/28 02:45:09;;;;;;;4.38;3.40;;;;;;;16.96;61.70;98645.97;5034894;28;20128;-66
2022/09/28 02:47:49;;;;;;;5.47;4.13;;;;;;;16.93;61.95;98638.22;5054448;28;20060;-65
2022/09/28 02:50:45;;;;;;;5.15;4.10;;;;;;;16.92;61.97;98635.69;5068946;28;20033;-65
2022/09/28 02:53:41;;;;;;;4.53;3.63;;;;;;;16.84;62.20;98633.63;5057197;28;20033;-64
2022/09/28 02:56:25;;;;;;;4.38;3.80;;;;;;;16.88;62.10;98637.72;5049873;28;20056;-65
2022/09/28 02:59:05;;;;;;;5.70;4.18;;;;;;;16.91;61.90;98636.63;5057800;28;20020;-63
2022/09/28 03:01:49;;;;;;;6.45;4.00;;;;;;;16.95;61.93;98641.59;5058639;28;20029;-64
2022/09/28 03:04:23;;;;;;;6.13;4.13;;;;;;;16.95;61.75;98636.28;5065493;28;20392;-64
2022/09/28 03:07:02;;;;;;;7.65;4.53;;;;;;;16.96;61.93;98634.50;5036235;28;20083;-64
2022/09/28 03:09:47;;;;;;;8.35;4.25;;;;;;;16.95;62.09;98638.09;5049661;28;20493;-64
2022/09/28 03:12:17;;;;;;;5.55;4.18;;;;;;;16.91;61.71;98637.47;5060858;28;20071;-64
2022/09/28 03:14:43;;;;;;;6.05;4.95;;;;;;;16.91;61.89;98636.63;5054323;28;20036;-65
2022/09/28 03:17:09;;;;;;;6.55;4.78;;;;;;;16.91;61.90;98640.13;5056231;28;20033;-65
2022/09/28 03:19:35;;;;;;;8.15;5.45;;;;;;;16.89;61.90;98633.25;5059744;28;20154;-66
2022/09/28 03:22:01;;;;;;;7.20;6.07;;;;;;;16.89;62.02;98635.91;5068046;28;20439;-66
2022/09/28 03:24:26;;;;;;;8.48;5.75;;;;;;;16.86;62.04;98634.34;5061649;28;20028;-66
2022/09/28 03:26:51;;;;;;;5.85;4.72;;;;;;;16.89;61.80;98634.09;5067369;28;20071;-64
2022/09/28 03:29:19;;;;;;;6.60;5.30;;;;;;;16.88;61.79;98631.59;5057629;28;20377;-65
2022/09/28 03:31:44;;;;;;;6.43;5.20;;;;;;;16.84;62.05;98638.91;5053099;28;20036;-65
2022/09/28 03:34:10;;;;;;;6.50;5.10;;;;;;;16.86;62.02;98634.34;5056444;28;20384;-67
2022/09/28 03:36:35;;;;;;;6.90;5.68;;;;;;;16.84;61.90;98628.31;5054598;28;20463;-65
2022/09/28 03:39:01;;;;;;;6.45;5.22;;;;;;;16.82;62.15;98634.69;5051044;28;20112;-65
2022/09/28 03:41:26;;;;;;;10.10;6.28;;;;;;;16.80;62.21;98632.16;5055451;28;20056;-65
2022/09/28 03:43:52;;;;;;;8.48;6.70;;;;;;;16.85;62.17;98635.31;5047150;28;20148;-65
2022/09/28 03:46:18;;;;;;;9.00;7.00;;;;;;;16.88;62.20;98624.47;5047515;28;20044;-66
2022/09/28 03:48:43;;;;;;;8.63;6.32;;;;;;;16.91;62.02;98629.53;5044246;28;20045;-66
2022/09/28 03:51:10;;;;;;;7.13;5.80;;;;;;;16.87;61.95;98629.88;5061390;28;20477;-63
2022/09/28 03:53:35;;;;;;;7.63;6.00;;;;;;;16.92;61.96;98625.94;5072000;28;20435;-65
2022/09/28 03:56:03;;;;;;;8.88;6.60;;;;;;;16.93;61.88;98627.59;5055564;28;20053;-64
2022/09/28 03:58:28;;;;;;;8.23;6.30;;;;;;;16.94;61.86;98621.34;5034349;28;20041;-64
2022/09/28 04:00:59;;;;;;;9.25;6.57;;;;;;;16.86;62.16;98626.38;5051778;28;20501;-63
2022/09/28 04:03:25;;;;;;;6.75;5.43;;;;;;;16.84;62.15;98623.00;5049801;28;20396;-64
2022/09/28 04:05:51;;;;;;;7.68;5.90;;;;;;;16.81;62.07;98625.03;5049011;28;20068;-64
2022/09/28 04:08:17;;;;;;;7.88;5.32;;;;;;;16.65;62.45;98618.19;5049110;28;20113;-65
2022/09/28 04:10:43;;;;;;;6.72;5.88;;;;;;;16.54;62.60;98627.91;5039124;28;20032;-64
2022/09/28 04:13:08;;;;;;;6.82;5.03;;;;;;;16.50;62.83;98625.47;5033524;28;20496;-64
2022/09/28 04:15:35;;;;;;;6.65;4.97;;;;;;;16.42;62.93;98627.00;5033730;28;20033;-65
2022/09/28 04:18:00;;;;;;;6.80;5.30;;;;;;;16.34;62.98;98621.41;5045254;28;20044;-65
2022/09/28 04:20:26;;;;;;;6.35;4.65;;;;;;;16.17;63.37;98622.66;5052357;28;20094;-64
2022/09/28 04:22:51;;;;;;;7.03;5.25;;;;;;;16.18;63.46;98627.81;5049264;28;20074;-66
2022/09/28 04:25:16;;;;;;;7.05;5.20;;;;;;;16.13;63.42;98622.00;5059563;28;20469;-65
2022/09/28 04:30:26;;;;;;;7.43;5.05;;;;;;;15.90;63.94;98625.47;5051635;28;20052;-66
2022/09/28 04:32:51;;;;;;;7.78;6.50;;;;;;;15.95;63.73;98629.47;5044549;28;20025;-65
2022/09/28 04:35:16;;;;;;;8.43;7.10;;;;;;;15.94;63.80;98625.13;5073762;28;20032;-65
2022/09/28 04:37:42;;;;;;;6.93;5.78;;;;;;;15.88;63.88;98622.94;5073438;28;20093;-65
2022/09/28 04:40:08;;;;;;;5.40;4.82;;;;;;;15.78;64.13;98624.53;5071643;28;20181;-66
2022/09/28 04:42:33;;;;;;;6.30;4.60;;;;;;;15.58;64.57;98619.75;5068332;28;20037;-64
2022/09/28 04:44:59;;;;;;;6.32;4.35;;;;;;;15.56;64.81;98629.59;5073311;28;20075;-64
2022/09/28 04:47:26;;;;;;;5.80;4.70;;;;;;;15.61;64.58;98620.41;5064490;28;20494;-65
2022/09/28 04:49:51;;;;;;;6.72;5.13;;;;;;;15.64;64.60;98617.53;5049467;28;20116;-65
2022/09/28 04:52:17;;;;;;;6.63;4.03;;;;;;;15.64;64.62;98624.63;5040237;28;20112;-65
2022/09/28 04:54:42;;;;;;;6.28;4.65;;;;;;;15.66;64.56;98620.09;5039958;28;20044;-65
2022/09/28 04:57:07;;;;;;;5.57;4.43;;;;;;;15.72;64.51;98619.69;5033530;28;20436;-65
2022/09/28 04:59:33;;;;;;;5.90;4.18;;;;;;;15.80;64.27;98612.03;5033644;28;20034;-66
2022/09/28 05:01:58;;;;;;;5.50;4.70;;;;;;;15.65;64.64;98621.06;5033592;28;20040;-66
2022/09/28 05:04:24;;;;;;;7.22;5.25;;;;;;;15.73;64.37;98613.44;5043634;28;20464;-66
2022/09/28 05:06:49;;;;;;;7.38;5.35;;;;;;;15.76;64.40;98614.06;5037898;28;20034;-65
2022/09/28 05:09:14;;;;;;;5.90;4.65;;;;;;;15.82;64.09;98618.06;5033219;28;20037;-66
2022/09/28 05:11:40;;;;;;;5.28;4.20;;;;;;;15.86;64.11;98616.03;5033449;28;20036;-66
2022/09/28 05:14:06;;;;;;;6.53;4.95;;;;;;;15.81;63.90;98623.47;5033362;28;20232;-66
2022/09/28 05:16:32;;;;;;;6.35;4.18;;;;;;;15.75;64.24;98624.75;5031860;28;20037;-66
2022/09/28 05:18:58;;;;;;;5.85;4.85;;;;;;;15.69;64.42;98612.78;5034092;28;20035;-66
2022/09/28 05:21:25;;;;;;;7.40;4.80;;;;;;;15.67;64.49;98612.03;5041560;28;20044;-65
2022/09/28 05:23:51;;;;;;;8.13;5.55;;;;;;;15.69;64.46;98614.59;5039681;28;20055;-65
2022/09/28 05:26:17;;;;;;;6.80;4.80;;;;;;;15.71;64.44;98616.16;5033442;28;20065;-65
2022/09/28 05:28:43;;;;;;;7.03;5.30;;;;;;;15.81;64.24;98613.72;5041801;28;20189;-65
2022/09/28 05:31:09;;;;;;;5.70;4.80;;;;;;;15.86;64.22;98613.41;5032706;28;20034;-65
2022/09/28 05:33:35;;;;;;;6.05;4.63;;;;;;;15.78;64.52;98613.94;5043955;28;20036;-65
2022/09/28 05:36:00;;;;;;;7.85;4.75;;;;;;;15.83;64.52;98614.44;5044185;28;20040;-63
2022/09/28 05:38:27;;;;;;;4.82;3.72;;;;;;;15.99;64.09;98614.19;5036568;28;20033;-65
2022/09/28 05:40:52;;;;;;;5.50;4.30;;;;;;;16.08;63.80;98610.91;5036857;28;20037;-65
2022/09/28 05:43:17;;;;;;;7.47;4.88;;;;;;;16.13;63.49;98610.56;5036910;28;20061;-65
2022/09/28 05:45:43;;;;;;;6.05;4.85;;;;;;;16.15;63.38;98606.00;5036789;28;20072;-65
2022/09/28 05:48:08;;;;;;;7.57;4.78;;;;;;;16.20;63.18;98614.47;5036666;28;20038;-65
2022/09/28 05:50:34;;;;;;;5.20;4.50;;;;;;;16.16;63.19;98610.38;5036706;28;20040;-65
2022/09/28 05:53:01;;;;;;;5.25;4.38;;;;;;;16.17;63.35;98606.75;5036604;28;20479;-66
2022/09/28 05:55:27;;;;;;;4.75;4.20;;;;;;;16.20;63.07;98607.38;5036585;28;20033;-66
2022/09/28 05:57:52;;;;;;;5.70;4.20;;;;;;;16.29;62.86;98605.00;5036568;28;20061;-65
2022/09/28 06:00:17;;;;;;;5.78;3.95;;;;;;;16.37;62.75;98614.09;5036543;28;20037;-65
2022/09/28 06:02:43;;;;;;;5.32;4.07;;;;;;;16.29;62.76;98611.16;5036424;28;20040;-66
2022/09/28 06:05:09;;;;;;;5.63;4.72;;;;;;;16.43;62.44;98602.16;5036376;28;20026;-64
2022/09/28 06:07:34;;;;;;;5.68;4.30;;;;;;;16.43;62.27;98610.97;5036178;28;20414;-66
2022/09/28 06:10:28;;;;;;;5.43;3.70;;;;;;;16.33;63.07;98615.28;5036214;28;20035;-64
2022/09/28 06:12:54;;;;;;;5.75;4.60;;;;;;;16.38;62.66;98612.28;5049680;28;20063;-65
2022/09/28 06:15:21;;;;;;;7.68;4.45;;;;;;;16.36;62.70;98612.41;5044849;28;20032;-66
2022/09/28 06:17:47;;;;;;;7.10;5.00;;;;;;;16.29;62.58;98616.44;5056464;28;20496;-66
2022/09/28 06:20:12;;;;;;;6.40;4.18;;;;;;;16.32;62.52;98618.00;5059348;28;20041;-66
2022/09/28 06:22:38;;;;;;;7.70;4.72;;;;;;;16.23;62.68;98614.22;5056029;28;20037;-64
2022/09/28 06:25:05;;;;;;;6.03;4.93;;;;;;;16.17;63.03;98612.03;5048624;28;20423;-65
2022/09/28 06:27:31;;;;;;;7.30;4.65;;;;;;;16.10;62.99;98613.44;5042208;28;20038;-65
2022/09/28 06:29:59;;;;;;;6.40;4.47;;;;;;;16.09;63.24;98606.47;5035568;28;20046;-67
2022/09/28 06:32:28;;;;;;;6.05;4.38;;;;;;;16.18;63.11;98608.44;5035861;28;20571;-66
2022/09/28 06:34:55;;;;;;;7.15;3.97;;;;;;;16.22;62.98;98610.75;5034630;28;20041;-65
2022/09/28 06:37:20;;;;;;;8.63;5.00;;;;;;;16.27;62.88;98605.09;5035831;28;20108;-65
2022/09/28 06:39:46;;;;;;;7.78;4.85;;;;;;;16.13;63.06;98607.94;5035991;28;20168;-66
2022/09/28 06:42:11;;;;;;;6.88;5.30;;;;;;;16.28;62.52;98604.16;5034439;28;20461;-65
2022/09/28 06:44:36;;;;;;;6.55;4.50;;;;;;;16.37;62.30;98600.00;5035573;28;20083;-65
2022/09/28 06:47:02;;;;;;;6.13;4.60;;;;;;;16.39;62.17;98601.56;5035098;28;20400;-66
2022/09/28 06:49:29;;;;;;;5.95;4.47;;;;;;;16.39;62.06;98595.41;5036064;28;20384;-66
2022/09/28 06:51:54;;;;;;;5.15;4.60;;;;;;;16.37;61.93;98598.19;5035562;28;20052;-65
2022/09/28 06:54:24;;;;;;;5.15;4.13;;;;;;;16.31;62.02;98595.97;5035405;28;20038;-66
2022/09/28 06:56:50;;;;;;;5.68;4.00;;;;;;;16.22;62.35;98594.00;5035430;28;20037;-65
2022/09/28 06:59:16;;;;;;;5.70;4.22;;;;;;;16.18;62.48;98598.69;5035624;28;20033;-65
2022/09/28 07:01:41;;;;;;;5.28;3.88;;;;;;;16.18;62.63;98608.44;5049137;28;20052;-65
2022/09/28 07:04:06;;;;;;;5.82;4.40;;;;;;;16.31;62.26;98600.44;5055489;28;20440;-65
2022/09/28 07:06:32;;;;;;;5.15;4.18;;;;;;;16.39;62.14;98601.56;5055100;28;20036;-65
2022/09/28 07:09:01;;;;;;;5.68;5.07;;;;;;;16.48;61.98;98600.91;5055307;28;20121;-65
2022/09/28 07:11:27;;;;;;;6.03;4.53;;;;;;;16.60;61.66;98599.13;5053822;28;20033;-65
2022/09/28 07:13:53;;;;;;;7.60;5.10;;;;;;;16.43;61.84;98615.44;5054972;28;20136;-65
2022/09/28 07:16:18;;;;;;;4.85;4.20;;;;;;;16.36;62.09;98611.56;5055191;28;20112;-65
2022/09/28 07:18:44;;;;;;;5.05;4.30;;;;;;;16.57;61.83;98619.72;5055174;28;20103;-63
2022/09/28 07:21:09;;;;;;;5.47;4.55;;;;;;;16.46;62.21;98625.81;5054972;28;20043;-65
2022/09/28 07:23:34;;;;;;;5.38;4.07;;;;;;;16.67;61.95;98621.56;5054919;28;20028;-65
2022/09/28 07:26:04;;;;;;;4.78;4.10;;;;;;;16.87;61.47;98619.25;5054936;28;20033;-66
2022/09/28 07:28:31;;;;;;;7.45;5.07;;;;;;;16.87;60.90;98617.44;5054403;28;20546;-65
2022/09/28 07:30:56;;;;;;;7.40;4.90;;;;;;;16.78;60.78;98618.16;5054789;28;20037;-65
2022/09/28 07:33:24;;;;;;;6.50;4.50;;;;;;;16.62;61.30;98623.72;5054689;28;20033;-65
2022/09/28 07:35:54;;;;;;;5.82;4.80;;;;;;;16.56;60.86;98623.34;5054954;28;20384;-66
2022/09/28 07:38:19;;;;;;;7.28;4.07;;;;;;;16.61;61.35;98623.84;5054653;28;20362;-65
2022/09/28 07:43:29;;;;;;;7.10;4.45;;;;;;;16.82;60.76;98622.25;5054498;28;20565;-65
2022/09/28 07:45:54;;;;;;;5.43;3.75;;;;;;;16.89;60.85;98623.50;5054471;28;20056;-65
2022/09/28 07:48:20;;;;;;;4.75;4.13;;;;;;;16.97;60.22;98615.81;5054347;28;20064;-65
2022/09/28 07:50:51;;;;;;;4.78;3.80;;;;;;;17.09;59.48;98615.84;5054335;28;20400;-65
2022/09/28 07:53:21;;;;;;;5.05;3.65;;;;;;;17.22;59.81;98622.72;5054347;28;20093;-65
2022/09/28 07:55:54;;;;;;;6.55;4.22;;;;;;;17.20;58.71;98623.84;5054143;28;20486;-65
2022/09/28 07:58:20;;;;;;;5.18;3.70;;;;;;;17.22;58.98;98621.88;5053804;28;20029;-66
2022/09/28 08:00:47;;;;;;;4.43;3.35;;;;;;;17.18;58.73;98620.44;5054038;28;20037;-66
2022/09/28 08:03:14;;;;;;;4.88;3.80;;;;;;;17.02;58.92;98626.06;5054393;28;20074;-66
2022/09/28 08:05:41;;;;;;;5.38;4.20;;;;;;;17.20;58.98;98623.84;5054151;28;20047;-65
2022/09/28 08:08:07;;;;;;;5.07;3.85;;;;;;;17.23;58.95;98624.44;5052764;28;20163;-66
2022/09/28 08:10:33;;;;;;;6.47;4.22;;;;;;;17.18;58.80;98623.94;5053876;28;20115;-66
2022/09/28 08:13:02;;;;;;;5.78;4.22;;;;;;;17.25;58.57;98624.31;5053343;28;20068;-66
2022/09/28 08:15:35;;;;;;;5.38;3.47;;;;;;;17.00;59.11;98622.69;5054301;28;20037;-66
2022/09/28 08:18:02;;;;;;;4.20;3.13;;;;;;;17.23;58.97;98631.53;5054096;28;20074;-66
2022/09/28 08:23:12;;;;;;;4.45;2.90;;;;;;;17.43;58.56;98635.31;5054177;28;20475;-63
2022/09/28 08:25:38;;;;;;;5.40;3.25;;;;;;;17.40;58.08;98643.53;5053929;28;20041;-65
2022/09/28 08:28:05;;;;;;;3.75;2.75;;;;;;;17.56;57.87;98637.88;5053864;28;20072;-65
2022/09/28 08:30:31;;;;;;;4.47;3.20;;;;;;;17.54;57.95;98640.63;5053637;28;20071;-64
2022/09/28 08:32:56;;;;;;;4.35;3.10;;;;;;;17.55;57.38;98639.66;5053399;28;20060;-64
2022/09/28 08:35:25;;;;;;;4.05;3.15;;;;;;;17.74;57.22;98647.06;5052640;28;20044;-64
2022/09/28 08:37:53;;;;;;;4.50;3.40;;;;;;;17.86;56.72;98651.44;5053623;28;20074;-64
2022/09/28 08:40:24;;;;;;;4.85;3.70;;;;;;;17.97;56.30;98651.44;5053957;28;20068;-65
2022/09/28 08:43:01;;;;;;;6.97;4.20;;;;;;;17.83;55.13;98643.69;5053419;28;20037;-65
2022/09/28 08:45:35;;;;;;;4.80;2.83;;;;;;;18.11;56.32;98652.13;5053157;28;20072;-65
2022/09/28 08:48:42;;;;;;;3.33;2.55;;;;;;;18.16;54.43;98656.13;5053121;28;20064;-65
2022/09/28 08:51:36;;;;;;;3.65;2.65;;;;;;;17.98;54.38;98654.94;5053389;28;20140;-65
2022/09/28 08:54:04;;;;;;;;;;;;;;;17.72;55.66;98654.31;5053797;28;20364;-65
2022/09/28 08:56:46;;;;;;;3.55;2.58;;;;;;;17.39;55.18;98655.94;5053682;28;20322;-66
2022/09/28 08:59:25;;;;;;;4.10;2.20;;;;;;;17.39;55.43;98655.94;5053106;28;20033;-64
2022/09/28 09:02:02;;;;;;;3.97;2.53;;;;;;;17.36;55.61;98658.00;5053170;28;20033;-66
2022/09/28 09:04:29;;;;;;;3.92;3.00;;;;;;;17.54;55.83;98651.25;5053163;28;20534;-65
2022/09/28 09:06:59;;;;;;;5.35;2.90;;;;;;;17.15;56.01;98647.19;5053482;28;20361;-64
2022/09/28 09:09:56;;;;;;;4.32;2.45;;;;;;;16.89;56.06;98642.06;5053403;28;20115;-65
2022/09/28 09:12:51;;;;;;;3.53;2.30;;;;;;;16.92;55.41;98641.84;5057199;28;20056;-64
2022/09/28 09:15:39;;;;;;;2.47;1.73;;;;;;;16.88;56.66;98643.03;5057263;28;20101;-65
2022/09/28 09:18:16;;;;;;;3.38;2.00;;;;;;;17.30;56.32;98650.50;5057580;28;20040;-65
2022/09/28 09:21:01;;;;;;;3.10;2.00;;;;;;;17.39;55.26;98649.78;5057194;28;20052;-67
2022/09/28 09:23:55;;;;;;;2.72;1.75;;;;;;;17.29;55.78;98646.16;5056027;28;20147;-65
2022/09/28 09:26:37;;;;;;;1.50;1.38;;;;;;;17.28;55.75;98653.28;5057028;28;20032;-65
2022/09/28 09:29:22;;;;;;;2.57;2.17;;;;;;;17.45;55.65;98649.31;5056663;28;20523;-66
2022/09/28 09:31:58;;;;;;;2.22;1.88;;;;;;;17.17;56.21;98653.25;5056091;28;20254;-65
2022/09/28 09:34:48;;;;;;;3.58;2.55;;;;;;;17.51;54.06;98658.63;5055926;28;20055;-66
2022/09/28 09:37:28;;;;;;;2.50;2.30;;;;;;;17.41;54.73;98648.72;5056298;28;20124;-66
2022/09/28 09:40:02;;;;;;;2.65;2.00;;;;;;;17.51;55.48;98645.34;5056473;28;20436;-66
2022/09/28 09:42:54;;;;;;;2.90;2.05;;;;;;;17.71;53.93;98644.63;5056174;28;20079;-66
2022/09/28 09:45:44;;;;;;;2.72;2.53;;;;;;;17.87;54.10;98653.16;5055575;28;20040;-66
2022/09/28 09:48:32;;;;;;;3.95;2.67;;;;;;;18.09;53.97;98648.78;5056359;28;20109;-66
2022/09/28 09:51:10;;;;;;;3.15;2.50;;;;;;;18.28;52.61;98648.16;5050541;28;20052;-66
2022/09/28 09:53:48;;;;;;;3.40;2.97;;;;;;;18.35;51.89;98642.22;5055038;28;20025;-65
2022/09/28 09:56:19;;;;;;;7.63;6.05;;;;;;;18.80;52.07;98649.22;5055841;28;20120;-67
2022/09/28 09:58:49;;;;;;;5.00;3.00;;;;;;;19.22;52.47;98644.78;5056508;28;20384;-66
2022/09/28 10:01:24;;;;;;;6.07;3.00;;;;;;;19.10;50.83;98649.31;5056414;28;20060;-65
2022/09/28 10:03:50;;;;;;;4.22;3.47;;;;;;;19.18;51.58;98654.00;5056303;28;20029;-66
2022/09/28 10:06:26;;;;;;;3.08;2.55;;;;;;;19.01;52.02;98658.06;5055761;28;20451;-65
2022/09/28 10:09:09;;;;;;;3.60;2.50;;;;;;;18.97;49.77;98661.13;5055954;28;20068;-65
2022/09/28 10:11:50;;;;;;;2.92;2.50;;;;;;;19.04;50.55;98657.84;5056140;28;20061;-66
2022/09/28 10:14:21;;;;;;;3.00;2.17;;;;;;;19.64;49.30;98668.75;5056220;28;20403;-65
2022/09/28 10:16:49;;;;;;;2.65;2.42;;;;;;;19.85;48.46;98660.72;5055888;28;20036;-67
2022/09/28 10:19:18;;;;;;;2.97;2.38;;;;;;;19.88;48.38;98658.63;5055913;28;20091;-65
2022/09/28 10:21:50;;;;;;;3.03;1.80;;;;;;;20.42;48.72;98648.56;5055135;28;20032;-67
2022/09/28 10:24:46;;;;;;;3.60;1.90;;;;;;;21.31;44.88;98660.00;5056142;28;20037;-67
2022/09/28 10:27:17;;;;;;;2.70;2.03;;;;;;;21.42;43.48;98653.66;5050806;28;20091;-66
2022/09/28 10:30:00;;;;;;;3.35;1.60;;;;;;;21.92;43.89;98653.38;5055452;28;20032;-64
2022/09/28 10:32:34;;;;;;;;;;;;;;;21.79;43.54;98651.06;5056103;28;20032;-67
2022/09/28 10:35:18;;;;;;;2.60;1.52;;;;;;;21.56;44.51;98652.38;5056081;28;19909;-66
2022/09/28 10:38:05;;;;;;;2.33;1.40;;;;;;;22.07;41.87;98659.94;5055724;28;20035;-64
2022/09/28 10:40:34;;;;;;;2.53;1.80;;;;;;;21.23;43.34;98657.19;5054052;28;20424;-68
2022/09/28 10:43:05;;;;;;;2.67;2.00;;;;;;;21.10;45.22;98661.97;5054992;28;20059;-66
2022/09/28 10:45:35;;;;;;;2.00;1.50;;;;;;;20.84;43.61;98667.88;5055623;28;20123;-67
2022/09/28 10:48:05;;;;;;;1.95;1.40;;;;;;;21.18;45.54;98664.78;5055518;28;20456;-66
2022/09/28 10:50:30;;;;;;;2.97;1.80;;;;;;;21.83;44.45;98657.78;5055419;28;20357;-66
2022/09/28 10:53:19;;;;;;;3.28;1.60;;;;;;;21.36;41.21;98667.63;5055049;28;20090;-66
2022/09/28 10:55:58;;;;;;;1.50;1.20;;;;;;;20.73;44.29;98661.84;5054784;28;20091;-65
2022/09/28 10:58:39;;;;;;;2.47;1.80;;;;;;;20.06;44.01;98666.00;5055215;28;20439;-66
2022/09/28 11:01:11;;;;;;;2.05;1.27;;;;;;;19.79;44.84;98662.13;5054889;28;20036;-66
2022/09/28 11:03:57;;;;;;;1.57;1.20;;;;;;;19.15;44.03;98662.22;5055291;28;20025;-67
2022/09/28 11:06:28;;;;;;;1.50;1.10;;;;;;;19.49;45.36;98667.38;5055219;28;20063;-66
2022/09/28 11:08:58;;;;;;;1.42;1.23;;;;;;;19.47;44.92;98674.63;5054914;28;20476;-66
2022/09/28 11:11:23;;;;;;;1.75;0.93;;;;;;;19.60;46.00;98672.63;5054793;28;20033;-66
2022/09/28 11:13:55;;;;;;;1.33;0.80;;;;;;;19.72;45.26;98674.28;5054679;28;20052;-67
2022/09/28 11:16:27;;;;;;;2.22;0.93;;;;;;;19.60;45.88;98669.97;5055298;28;20043;-67
2022/09/28 11:18:53;;;;;;;2.97;1.52;;;;;;;19.92;46.29;98665.38;5055021;28;20087;-67
2022/09/28 11:21:25;;;;;;;1.60;0.90;;;;;;;20.10;45.36;98662.91;5054616;28;20128;-67
2022/09/28 11:24:05;;;;;;;1.73;1.25;;;;;;;20.78;43.87;98664.91;5054655;28;20025;-67
2022/09/28 11:26:39;;;;;;;1.90;1.30;;;;;;;21.21;44.52;98663.66;5054894;28;20033;-67
2022/09/28 11:29:06;;;;;;;1.95;1.20;;;;;;;21.15;43.16;98659.75;5053976;28;20037;-67
2022/09/28 11:31:33;;;;;;;1.90;1.30;;;;;;;21.67;43.23;98654.06;5054332;28;20365;-67
2022/09/28 11:34:15;;;;;;;3.65;1.38;;;;;;;21.27;43.62;98663.94;5053330;28;20101;-66
2022/09/28 11:37:07;;;;;;;1.08;0.70;;;;;;;21.47;40.20;98653.25;5054388;28;20037;-67
2022/09/28 11:39:44;;;;;;;1.13;0.77;;;;;;;21.41;38.97;98652.00;5054524;28;20029;-67
2022/09/28 11:42:41;;;;;;;1.50;1.00;;;;;;;21.23;41.55;98649.19;5054693;28;20029;-66
2022/09/28 11:45:20;;;;;;;1.25;0.90;;;;;;;21.33;42.05;98655.38;5054349;28;20048;-68
2022/09/28 11:48:05;;;;;;;2.17;1.27;;;;;;;21.43;41.83;98644.69;5054278;28;20039;-67
2022/09/28 11:50:51;;;;;;;2.17;1.27;;;;;;;21.05;38.53;98637.53;5054138;28;20060;-67
2022/09/28 11:53:22;;;;;;;2.38;0.90;;;;;;;21.34;42.36;98641.06;5054242;28;20033;-66
2022/09/28 11:56:11;;;;;;;1.60;1.07;;;;;;;21.72;40.45;98635.75;5054510;28;20033;-66
2022/09/28 11:58:45;;;;;;;2.25;1.10;;;;;;;21.37;39.61;98642.56;5054311;28;20028;-67
2022/09/28 12:01:40;;;;;;;1.25;0.88;;;;;;;21.27;40.10;98641.75;5054071;28;20086;-67
2022/09/28 12:04:19;;;;;;;1.23;1.00;;;;;;;21.49;41.73;98637.91;5054429;28;20036;-67